Time;durP1;ratioP1;P1;durP2;ratioP2;P2;SDS_P1;SDS_P2;PMS_P1;PMS_P2;Temp;Humidity;BMP_temperature;BMP_pressure;BME280_temperature;BME280_humidity;BME280_pressure;Samples;Min_cycle;Max_cycle;Signal;HPM_P1;HPM_P2
2022/03/11 00:00:20;;;;;;;;;;;;;;;;;;5001706;28;20007;-71
2022/03/11 00:02:46;;;;;;;;;;;;;;;;;;5022349;28;19964;-71
2022/03/11 00:05:12;;;;;;;;;;;;;;;;;;5022724;28;20031;-71
2022/03/11 00:07:38;;;;;;;;;;;;;;;;;;5024428;28;20374;-71
2022/03/11 00:10:04;;;;;;;;;;;;;;;;;;5026465;28;19916;-70
2022/03/11 00:12:30;;;;;;;;;;;;;;;;;;5022119;28;24285;-71
2022/03/11 00:14:56;;;;;;;;;;;;;;;;;;5029430;28;20668;-71
2022/03/11 00:17:23;;;;;;;;;;;;;;;;;;5026434;28;19917;-70
2022/03/11 00:19:49;;;;;;;;;;;;;;;;;;5032446;28;19943;-71
2022/03/11 00:22:16;;;;;;;;;;;;;;;;;;5022040;28;20010;-70
2022/03/11 00:24:42;;;;;;;;;;;;;;;;;;5026341;28;19923;-71
2022/03/11 00:27:08;;;;;;;;;;;;;;;;;;5023798;28;20100;-71
2022/03/11 00:29:34;;;;;;;;;;;;;;;;;;5020646;28;19921;-73
2022/03/11 00:32:00;;;;;;;;;;;;;;;;;;5015327;28;19925;-71
2022/03/11 00:34:26;;;;;;;;;;;;;;;;;;5005257;28;20559;-71
2022/03/11 00:36:52;;;;;;;;;;;;;;;;;;5005728;28;19917;-71
2022/03/11 00:39:18;;;;;;;;;;;;;;;;;;5002268;28;20450;-70
2022/03/11 00:41:44;;;;;;;;;;;;;;;;;;5005065;28;20214;-71
2022/03/11 00:44:10;;;;;;;;;;;;;;;;;;5005453;28;19975;-71
2022/03/11 00:46:36;;;;;;;;;;;;;;;;;;5009008;28;19926;-71
2022/03/11 00:49:03;;;;;;;;;;;;;;;;;;4992462;28;20302;-71
2022/03/11 00:51:29;;;;;;;;;;;;;;;;;;5004581;28;19979;-71
2022/03/11 00:53:54;;;;;;;;;;;;;;;;;;5007375;28;19913;-71
2022/03/11 00:56:20;;;;;;;;;;;;;;;;;;5001299;28;19917;-71
2022/03/11 00:58:46;;;;;;;;;;;;;;;;;;5007143;28;20414;-71
2022/03/11 01:01:12;;;;;;;;;;;;;;;;;;4991986;28;20359;-71
2022/03/11 01:03:38;;;;;;;;;;;;;;;;;;5012600;28;19921;-71
2022/03/11 01:06:04;;;;;;;;;;;;;;;;;;5007092;28;19921;-71
2022/03/11 01:08:30;;;;;;;;;;;;;;;;;;5012099;28;20465;-71
2022/03/11 01:10:56;;;;;;;;;;;;;;;;;;5013266;28;19940;-71
2022/03/11 01:13:22;;;;;;;;;;;;;;;;;;5007633;28;20016;-71
2022/03/11 01:15:48;;;;;;;;;;;;;;;;;;5009324;28;20431;-72
2022/03/11 01:18:14;;;;;;;;;;;;;;;;;;5005928;28;20368;-71
2022/03/11 01:20:40;;;;;;;;;;;;;;;;;;5009701;28;19921;-72
2022/03/11 01:23:06;;;;;;;;;;;;;;;;;;5007241;28;19917;-71
2022/03/11 01:25:32;;;;;;;;;;;;;;;;;;5004034;28;20399;-71
2022/03/11 01:27:58;;;;;;;;;;;;;;;;;;5007989;28;19916;-71
2022/03/11 01:30:24;;;;;;;;;;;;;;;;;;5003920;28;19917;-71
2022/03/11 01:32:50;;;;;;;;;;;;;;;;;;5023288;28;20270;-71
2022/03/11 01:35:16;;;;;;;;;;;;;;;;;;5020351;28;20400;-71
2022/03/11 01:37:43;;;;;;;;;;;;;;;;;;5026768;28;20359;-71
2022/03/11 01:40:09;;;;;;;;;;;;;;;;;;5023714;28;19968;-72
2022/03/11 01:42:36;;;;;;;;;;;;;;;;;;5017852;28;20385;-72
2022/03/11 01:45:02;;;;;;;;;;;;;;;;;;5014493;28;19928;-71
2022/03/11 01:47:28;;;;;;;;;;;;;;;;;;5023714;28;19921;-71
2022/03/11 01:49:54;;;;;;;;;;;;;;;;;;5028265;28;19924;-71
2022/03/11 01:52:20;;;;;;;;;;;;;;;;;;5029055;28;19917;-71
2022/03/11 01:54:46;;;;;;;;;;;;;;;;;;5018293;28;19936;-71
2022/03/11 01:57:12;;;;;;;;;;;;;;;;;;5034279;28;19968;-71
2022/03/11 01:59:38;;;;;;;;;;;;;;;;;;5029134;28;20042;-70
2022/03/11 02:02:05;;;;;;;;;;;;;;;;;;5028776;28;20286;-71
2022/03/11 02:04:31;;;;;;;;;;;;;;;;;;4990266;28;21251;-71
2022/03/11 02:06:57;;;;;;;;;;;;;;;;;;5015235;28;20035;-72
2022/03/11 02:09:23;;;;;;;;;;;;;;;;;;5034386;28;19916;-72
2022/03/11 02:11:49;;;;;;;;;;;;;;;;;;5031335;28;19917;-71
2022/03/11 02:14:15;;;;;;;;;;;;;;;;;;5027166;28;20325;-71
2022/03/11 02:16:40;;;;;;;;;;;;;;;;;;5039018;28;20320;-71
2022/03/11 02:19:06;;;;;;;;;;;;;;;;;;5032965;28;19969;-71
2022/03/11 02:21:32;;;;;;;;;;;;;;;;;;5036228;28;20278;-71
2022/03/11 02:23:58;;;;;;;;;;;;;;;;;;5034822;28;19917;-72
2022/03/11 02:26:24;;;;;;;;;;;;;;;;;;5014410;28;19928;-72
2022/03/11 02:28:50;;;;;;;;;;;;;;;;;;5037169;28;19932;-72
2022/03/11 02:31:16;;;;;;;;;;;;;;;;;;5029320;28;20226;-71
2022/03/11 02:33:42;;;;;;;;;;;;;;;;;;5032513;28;20363;-71
2022/03/11 02:36:09;;;;;;;;;;;;;;;;;;5033681;28;20237;-71
2022/03/11 02:38:35;;;;;;;;;;;;;;;;;;5038114;28;19924;-70
2022/03/11 02:41:01;;;;;;;;;;;;;;;;;;5034174;28;19916;-70
2022/03/11 02:43:27;;;;;;;;;;;;;;;;;;5029746;28;19927;-71
2022/03/11 02:45:53;;;;;;;;;;;;;;;;;;5033025;28;20622;-70
2022/03/11 02:48:19;;;;;;;;;;;;;;;;;;5031336;28;19917;-71
2022/03/11 02:50:45;;;;;;;;;;;;;;;;;;5035624;28;19966;-71
2022/03/11 02:53:11;;;;;;;;;;;;;;;;;;5029530;28;19916;-70
2022/03/11 02:55:37;;;;;;;;;;;;;;;;;;5035071;28;19924;-70
2022/03/11 02:58:03;;;;;;;;;;;;;;;;;;5024315;28;19978;-70
2022/03/11 03:00:29;;;;;;;;;;;;;;;;;;5029896;28;19916;-70
2022/03/11 03:02:55;;;;;;;;;;;;;;;;;;5035776;28;20314;-70
2022/03/11 03:05:21;;;;;;;;;;;;;;;;;;5036367;28;19920;-70
2022/03/11 03:07:47;;;;;;;;;;;;;;;;;;5035438;28;20268;-70
2022/03/11 03:10:13;;;;;;;;;;;;;;;;;;5033650;28;20679;-70
2022/03/11 03:12:39;;;;;;;;;;;;;;;;;;5030826;28;20023;-70
2022/03/11 03:15:05;;;;;;;;;;;;;;;;;;5031548;28;19920;-70
2022/03/11 03:17:31;;;;;;;;;;;;;;;;;;5037436;28;20225;-70
2022/03/11 03:19:57;;;;;;;;;;;;;;;;;;5035712;28;19947;-70
2022/03/11 03:22:23;;;;;;;;;;;;;;;;;;5034595;28;19924;-70
2022/03/11 03:24:49;;;;;;;;;;;;;;;;;;5037276;28;19916;-70
2022/03/11 03:27:16;;;;;;;;;;;;;;;;;;5034057;28;19917;-70
2022/03/11 03:29:42;;;;;;;;;;;;;;;;;;5040152;28;19912;-70
2022/03/11 03:32:07;;;;;;;;;;;;;;;;;;5038648;28;19924;-70
2022/03/11 03:34:33;;;;;;;;;;;;;;;;;;5033736;28;19917;-70
2022/03/11 03:36:59;;;;;;;;;;;;;;;;;;5040911;28;19917;-70
2022/03/11 03:39:25;;;;;;;;;;;;;;;;;;5035235;28;19921;-70
2022/03/11 03:41:51;;;;;;;;;;;;;;;;;;5029853;28;19917;-70
2022/03/11 03:44:17;;;;;;;;;;;;;;;;;;5035101;28;19986;-71
2022/03/11 03:46:43;;;;;;;;;;;;;;;;;;5035110;28;20409;-70
2022/03/11 03:49:09;;;;;;;;;;;;;;;;;;5032857;28;19994;-70
2022/03/11 03:51:38;;;;;;;;;;;;;;;;;;5043196;28;20504;-70
2022/03/11 03:54:03;;;;;;;;;;;;;;;;;;5034986;28;20455;-69
2022/03/11 03:56:29;;;;;;;;;;;;;;;;;;5035968;28;20016;-70
2022/03/11 03:58:55;;;;;;;;;;;;;;;;;;5031137;28;19967;-70
2022/03/11 04:01:21;;;;;;;;;;;;;;;;;;5029422;28;20350;-70
2022/03/11 04:03:47;;;;;;;;;;;;;;;;;;5038834;28;20012;-70
2022/03/11 04:06:13;;;;;;;;;;;;;;;;;;5032466;28;20216;-70
2022/03/11 04:08:40;;;;;;;;;;;;;;;;;;5034925;28;19917;-70
2022/03/11 04:11:06;;;;;;;;;;;;;;;;;;5036181;28;20023;-70
2022/03/11 04:13:31;;;;;;;;;;;;;;;;;;5034650;28;20107;-70
2022/03/11 04:15:58;;;;;;;;;;;;;;;;;;5039365;28;19916;-70
2022/03/11 04:18:24;;;;;;;;;;;;;;;;;;5036756;28;19917;-70
2022/03/11 04:20:50;;;;;;;;;;;;;;;;;;5035954;28;20369;-70
2022/03/11 04:23:16;;;;;;;;;;;;;;;;;;5037690;28;20011;-70
2022/03/11 04:25:42;;;;;;;;;;;;;;;;;;5037894;28;20476;-70
2022/03/11 04:28:08;;;;;;;;;;;;;;;;;;5035504;28;19923;-70
2022/03/11 04:30:34;;;;;;;;;;;;;;;;;;5031692;28;19928;-70
2022/03/11 04:33:00;;;;;;;;;;;;;;;;;;5042208;28;19952;-70
2022/03/11 04:35:26;;;;;;;;;;;;;;;;;;5014008;28;20465;-71
2022/03/11 04:37:52;;;;;;;;;;;;;;;;;;5035119;28;19920;-70
2022/03/11 04:40:18;;;;;;;;;;;;;;;;;;5032468;28;19939;-70
2022/03/11 04:42:44;;;;;;;;;;;;;;;;;;5038556;28;20487;-70
2022/03/11 04:45:10;;;;;;;;;;;;;;;;;;5039872;28;19931;-70
2022/03/11 04:47:38;;;;;;;;;;;;;;;;;;5018569;28;19948;-72
2022/03/11 04:50:04;;;;;;;;;;;;;;;;;;5034698;28;20054;-70
2022/03/11 04:52:30;;;;;;;;;;;;;;;;;;5033194;28;19948;-70
2022/03/11 04:54:56;;;;;;;;;;;;;;;;;;5037953;28;20374;-70
2022/03/11 04:57:22;;;;;;;;;;;;;;;;;;5035383;28;19917;-70
2022/03/11 04:59:48;;;;;;;;;;;;;;;;;;5038697;28;19931;-70
2022/03/11 05:02:16;;;;;;;;;;;;;;;;;;5038987;28;20359;-70
2022/03/11 05:04:42;;;;;;;;;;;;;;;;;;5035049;28;20273;-70
2022/03/11 05:07:09;;;;;;;;;;;;;;;;;;5037777;28;20227;-70
2022/03/11 05:09:36;;;;;;;;;;;;;;;;;;5032885;28;20340;-70
2022/03/11 05:12:02;;;;;;;;;;;;;;;;;;5033661;28;20775;-70
2022/03/11 05:14:29;;;;;;;;;;;;;;;;;;5035478;28;19917;-71
2022/03/11 05:16:55;;;;;;;;;;;;;;;;;;5036724;28;20006;-71
2022/03/11 05:19:24;;;;;;;;;;;;;;;;;;5027607;28;20696;-70
2022/03/11 05:21:52;;;;;;;;;;;;;;;;;;5034044;28;19916;-69
2022/03/11 05:24:20;;;;;;;;;;;;;;;;;;5030529;28;20738;-70
2022/03/11 05:26:46;;;;;;;;;;;;;;;;;;5034365;28;19921;-71
2022/03/11 05:29:13;;;;;;;;;;;;;;;;;;5028651;28;19935;-70
2022/03/11 05:31:39;;;;;;;;;;;;;;;;;;5040996;28;19924;-70
2022/03/11 05:34:07;;;;;;;;;;;;;;;;;;5031219;28;19921;-70
2022/03/11 05:36:33;;;;;;;;;;;;;;;;;;5035868;28;19923;-70
2022/03/11 05:38:59;;;;;;;;;;;;;;;;;;5029557;28;19913;-70
2022/03/11 05:41:27;;;;;;;;;;;;;;;;;;5037829;28;20411;-71
2022/03/11 05:43:54;;;;;;;;;;;;;;;;;;5031800;28;19920;-71
2022/03/11 05:46:23;;;;;;;;;;;;;;;;;;4988188;28;20272;-71
2022/03/11 05:48:49;;;;;;;;;;;;;;;;;;5032165;28;19971;-71
2022/03/11 05:51:16;;;;;;;;;;;;;;;;;;5029974;28;20374;-71
2022/03/11 05:53:44;;;;;;;;;;;;;;;;;;5027376;28;19921;-71
2022/03/11 05:56:10;;;;;;;;;;;;;;;;;;5031477;28;19921;-71
2022/03/11 05:58:36;;;;;;;;;;;;;;;;;;5041803;28;19993;-71
2022/03/11 06:01:03;;;;;;;;;;;;;;;;;;5035333;28;19920;-71
2022/03/11 06:03:31;;;;;;;;;;;;;;;;;;5032534;28;19923;-71
2022/03/11 06:05:58;;;;;;;;;;;;;;;;;;5034074;28;19972;-71
2022/03/11 06:08:25;;;;;;;;;;;;;;;;;;5045631;28;19916;-71
2022/03/11 06:10:53;;;;;;;;;;;;;;;;;;5033331;28;19912;-71
2022/03/11 06:13:19;;;;;;;;;;;;;;;;;;5030735;28;19916;-70
2022/03/11 06:15:45;;;;;;;;;;;;;;;;;;5039316;28;20394;-71
2022/03/11 06:18:15;;;;;;;;;;;;;;;;;;5027439;28;20324;-71
2022/03/11 06:20:42;;;;;;;;;;;;;;;;;;5013749;28;19923;-71
2022/03/11 06:23:09;;;;;;;;;;;;;;;;;;5032330;28;19917;-71
2022/03/11 06:25:35;;;;;;;;;;;;;;;;;;5042042;28;19928;-71
2022/03/11 06:28:02;;;;;;;;;;;;;;;;;;5030113;28;20318;-71
2022/03/11 06:30:30;;;;;;;;;;;;;;;;;;5029022;28;19981;-71
2022/03/11 06:32:57;;;;;;;;;;;;;;;;;;5037212;28;19927;-71
2022/03/11 06:35:24;;;;;;;;;;;;;;;;;;5015347;28;20377;-71
2022/03/11 06:37:50;;;;;;;;;;;;;;;;;;5034680;28;20301;-71
2022/03/11 06:40:17;;;;;;;;;;;;;;;;;;5029750;28;19917;-71
2022/03/11 06:42:44;;;;;;;;;;;;;;;;;;5036089;28;20025;-72
2022/03/11 06:45:10;;;;;;;;;;;;;;;;;;5037569;28;19959;-71
2022/03/11 06:47:37;;;;;;;;;;;;;;;;;;5034419;28;19917;-72
2022/03/11 06:50:04;;;;;;;;;;;;;;;;;;5033576;28;20011;-72
2022/03/11 06:52:30;;;;;;;;;;;;;;;;;;5036218;28;19916;-73
2022/03/11 06:54:56;;;;;;;;;;;;;;;;;;5037010;28;19920;-72
2022/03/11 06:57:23;;;;;;;;;;;;;;;;;;5034851;28;20404;-72
2022/03/11 06:59:50;;;;;;;;;;;;;;;;;;5034028;28;19917;-72
2022/03/11 07:02:18;;;;;;;;;;;;;;;;;;5036260;28;19946;-72
2022/03/11 07:04:48;;;;;;;;;;;;;;;;;;5031462;28;19987;-71
2022/03/11 07:07:14;;;;;;;;;;;;;;;;;;5032232;28;20031;-71
2022/03/11 07:09:40;;;;;;;;;;;;;;;;;;5034343;28;19923;-72
2022/03/11 07:12:06;;;;;;;;;;;;;;;;;;5034148;28;19920;-72
2022/03/11 07:14:34;;;;;;;;;;;;;;;;;;5036045;28;19975;-71
2022/03/11 07:17:01;;;;;;;;;;;;;;;;;;5036489;28;20223;-71
2022/03/11 07:19:28;;;;;;;;;;;;;;;;;;5034169;28;20340;-71
2022/03/11 07:21:54;;;;;;;;;;;;;;;;;;5036739;28;20343;-72
2022/03/11 07:24:22;;;;;;;;;;;;;;;;;;5032474;28;19917;-71
2022/03/11 07:26:48;;;;;;;;;;;;;;;;;;5036371;28;19985;-72
2022/03/11 07:29:16;;;;;;;;;;;;;;;;;;5033615;28;19920;-72
2022/03/11 07:31:42;;;;;;;;;;;;;;;;;;5031890;28;20260;-71
2022/03/11 07:34:08;;;;;;;;;;;;;;;;;;5033918;28;20033;-72
2022/03/11 07:36:34;;;;;;;;;;;;;;;;;;5024406;28;20426;-71
2022/03/11 07:39:00;;;;;;;;;;;;;;;;;;5031757;28;20006;-72
2022/03/11 07:41:29;;;;;;;;;;;;;;;;;;5034896;28;19916;-72
2022/03/11 07:43:55;;;;;;;;;;;;;;;;;;5036067;28;19944;-72
2022/03/11 07:46:23;;;;;;;;;;;;;;;;;;5026796;28;19981;-72
2022/03/11 07:48:50;;;;;;;;;;;;;;;;;;5049756;28;19917;-72
2022/03/11 07:51:16;;;;;;;;;;;;;;;;;;5040789;28;19916;-72
2022/03/11 07:53:43;;;;;;;;;;;;;;;;;;5030927;28;19978;-72
2022/03/11 07:56:14;;;;;;;;;;;;;;;;;;5026806;28;19959;-72
2022/03/11 07:58:41;;;;;;;;;;;;;;;;;;5027741;28;20019;-71
2022/03/11 08:01:09;;;;;;;;;;;;;;;;;;5034274;28;19917;-71
2022/03/11 08:03:37;;;;;;;;;;;;;;;;;;5022906;28;19999;-71
2022/03/11 08:06:04;;;;;;;;;;;;;;;;;;5034834;28;19928;-71
2022/03/11 08:08:32;;;;;;;;;;;;;;;;;;5022846;28;21762;-71
2022/03/11 08:11:19;;;;;;;;;;;;;;;;;;5023742;28;19913;-71
2022/03/11 08:13:45;;;;;;;;;;;;;;;;;;5036389;28;19916;-71
2022/03/11 08:16:15;;;;;;;;;;;;;;;;;;5034704;28;19970;-71
2022/03/11 08:18:45;;;;;;;;;;;;;;;;;;5036598;28;19912;-70
2022/03/11 08:21:18;;;;;;;;;;;;;;;;;;5026441;28;19917;-72
2022/03/11 08:23:45;;;;;;;;;;;;;;;;;;5035954;28;20039;-71
2022/03/11 08:26:11;;;;;;;;;;;;;;;;;;5025005;28;20042;-72
2022/03/11 08:28:39;;;;;;;;;;;;;;;;;;5029038;28;19978;-72
2022/03/11 08:31:06;;;;;;;;;;;;;;;;;;5022738;28;20457;-70
2022/03/11 08:33:37;;;;;;;;;;;;;;;;;;5022692;28;19925;-70
2022/03/11 08:36:06;;;;;;;;;;;;;;;;;;5019124;28;19921;-70
2022/03/11 08:38:33;;;;;;;;;;;;;;;;;;5015499;28;20372;-70
2022/03/11 08:41:02;;;;;;;;;;;;;;;;;;5023859;28;19917;-70
2022/03/11 08:43:28;;;;;;;;;;;;;;;;;;5013998;28;19917;-70
2022/03/11 08:45:54;;;;;;;;;;;;;;;;;;5027171;28;19971;-70
2022/03/11 08:48:20;;;;;;;;;;;;;;;;;;5023374;28;20461;-71
2022/03/11 08:50:47;;;;;;;;;;;;;;;;;;5018432;28;19921;-71
2022/03/11 08:53:15;;;;;;;;;;;;;;;;;;5034943;28;20257;-71
2022/03/11 08:55:42;;;;;;;;;;;;;;;;;;5020769;28;19925;-71
2022/03/11 08:58:08;;;;;;;;;;;;;;;;;;5023858;28;20012;-71
2022/03/11 09:00:35;;;;;;;;;;;;;;;;;;5023680;28;20385;-71
2022/03/11 09:03:01;;;;;;;;;;;;;;;;;;5016964;28;20441;-71
2022/03/11 09:05:28;;;;;;;;;;;;;;;;;;5003675;28;19920;-70
2022/03/11 09:07:56;;;;;;;;;;;;;;;;;;5014951;28;19921;-71
2022/03/11 09:10:22;;;;;;;;;;;;;;;;;;5020507;28;19939;-70
2022/03/11 09:12:48;;;;;;;;;;;;;;;;;;5016610;28;20906;-71
2022/03/11 09:15:15;;;;;;;;;;;;;;;;;;5013654;28;19921;-70
2022/03/11 09:17:42;;;;;;;;;;;;;;;;;;5016831;28;19924;-70
2022/03/11 09:20:09;;;;;;;;;;;;;;;;;;5020495;28;19925;-71
2022/03/11 09:22:37;;;;;;;;;;;;;;;;;;5023143;28;19951;-71
2022/03/11 09:25:04;;;;;;;;;;;;;;;;;;5014634;28;20019;-71
2022/03/11 09:27:31;;;;;;;;;;;;;;;;;;5016835;28;19975;-71
2022/03/11 09:29:57;;;;;;;;;;;;;;;;;;5024282;28;19921;-71
2022/03/11 09:32:23;;;;;;;;;;;;;;;;;;5014025;28;20015;-71
2022/03/11 09:34:49;;;;;;;;;;;;;;;;;;5014346;28;19927;-71
2022/03/11 09:37:15;;;;;;;;;;;;;;;;;;5010049;28;20160;-70
2022/03/11 09:39:41;;;;;;;;;;;;;;;;;;5013517;28;20377;-71
2022/03/11 09:42:07;;;;;;;;;;;;;;;;;;5010717;28;19975;-71
2022/03/11 09:44:33;;;;;;;;;;;;;;;;;;5008996;28;19944;-72
2022/03/11 09:47:00;;;;;;;;;;;;;;;;;;5011218;28;19925;-72
2022/03/11 09:49:26;;;;;;;;;;;;;;;;;;5009767;28;19925;-72
2022/03/11 09:51:52;;;;;;;;;;;;;;;;;;5014196;28;19974;-71
2022/03/11 09:54:18;;;;;;;;;;;;;;;;;;4994852;28;19956;-71
2022/03/11 09:56:44;;;;;;;;;;;;;;;;;;5010094;28;19921;-71
2022/03/11 09:59:10;;;;;;;;;;;;;;;;;;5006178;28;19921;-72
2022/03/11 10:01:36;;;;;;;;;;;;;;;;;;5007315;28;19917;-72
2022/03/11 10:04:03;;;;;;;;;;;;;;;;;;5011143;28;20022;-72
2022/03/11 10:06:31;;;;;;;;;;;;;;;;;;5004845;28;19948;-72
2022/03/11 10:08:57;;;;;;;;;;;;;;;;;;5027145;28;20176;-72
2022/03/11 10:11:24;;;;;;;;;;;;;;;;;;5021728;28;19943;-72
2022/03/11 10:13:51;;;;;;;;;;;;;;;;;;5024128;28;19917;-72
2022/03/11 10:16:19;;;;;;;;;;;;;;;;;;5022002;28;20535;-72
2022/03/11 10:18:46;;;;;;;;;;;;;;;;;;5025609;28;19917;-72
2022/03/11 10:21:12;;;;;;;;;;;;;;;;;;5019903;28;19917;-72
2022/03/11 10:23:41;;;;;;;;;;;;;;;;;;5021399;28;20074;-72
2022/03/11 10:26:08;;;;;;;;;;;;;;;;;;5012580;28;19932;-72
2022/03/11 10:28:35;;;;;;;;;;;;;;;;;;5020049;28;20006;-72
2022/03/11 10:31:01;;;;;;;;;;;;;;;;;;5025333;28;19968;-72
2022/03/11 10:33:28;;;;;;;;;;;;;;;;;;5042997;28;20011;-72
2022/03/11 10:35:55;;;;;;;;;;;;;;;;;;5046391;28;19999;-72
2022/03/11 10:38:21;;;;;;;;;;;;;;;;;;5027836;28;20441;-72
2022/03/11 10:40:47;;;;;;;;;;;;;;;;;;5026419;28;20414;-72
2022/03/11 10:43:14;;;;;;;;;;;;;;;;;;5028128;28;19917;-72
2022/03/11 10:45:40;;;;;;;;;;;;;;;;;;5032492;28;19925;-72
2022/03/11 10:48:06;;;;;;;;;;;;;;;;;;5038829;28;19916;-72
2022/03/11 10:50:32;;;;;;;;;;;;;;;;;;5043956;28;20007;-72
2022/03/11 10:52:59;;;;;;;;;;;;;;;;;;5017769;28;20022;-72
2022/03/11 10:55:28;;;;;;;;;;;;;;;;;;5037378;28;20263;-72
2022/03/11 10:57:54;;;;;;;;;;;;;;;;;;5045354;28;20403;-72
2022/03/11 11:00:20;;;;;;;;;;;;;;;;;;5005547;28;19924;-72
2022/03/11 11:02:46;;;;;;;;;;;;;;;;;;5017117;28;19917;-73
2022/03/11 11:05:15;;;;;;;;;;;;;;;;;;5018517;28;20353;-72
2022/03/11 11:07:41;;;;;;;;;;;;;;;;;;5041569;28;19921;-72
2022/03/11 11:10:07;;;;;;;;;;;;;;;;;;5024216;28;20284;-72
2022/03/11 11:12:35;;;;;;;;;;;;;;;;;;5033202;28;19916;-71
2022/03/11 11:15:01;;;;;;;;;;;;;;;;;;5033389;28;20282;-72
2022/03/11 11:17:28;;;;;;;;;;;;;;;;;;5030587;28;19928;-72
2022/03/11 11:20:04;;;;;;;;;;;;;;;;;;5036445;28;19916;-72
2022/03/11 11:22:31;;;;;;;;;;;;;;;;;;5020531;28;20021;-71
2022/03/11 11:24:57;;;;;;;;;;;;;;;;;;5010514;28;19917;-72
2022/03/11 11:27:23;;;;;;;;;;;;;;;;;;5030080;28;20380;-72
2022/03/11 11:29:49;;;;;;;;;;;;;;;;;;5036229;28;20028;-72
2022/03/11 11:32:15;;;;;;;;;;;;;;;;;;5030163;28;19921;-70
2022/03/11 11:34:42;;;;;;;;;;;;;;;;;;5015471;28;19925;-70
2022/03/11 11:37:08;;;;;;;;;;;;;;;;;;5028916;28;20280;-70
2022/03/11 11:39:34;;;;;;;;;;;;;;;;;;5025822;28;19921;-70
2022/03/11 11:42:00;;;;;;;;;;;;;;;;;;5031446;28;19927;-70
2022/03/11 11:44:27;;;;;;;;;;;;;;;;;;5031845;28;19924;-71
2022/03/11 11:46:53;;;;;;;;;;;;;;;;;;5036324;28;19924;-70
2022/03/11 11:49:23;;;;;;;;;;;;;;;;;;5012020;28;19917;-69
2022/03/11 11:51:52;;;;;;;;;;;;;;;;;;5032055;28;20322;-72
2022/03/11 11:54:20;;;;;;;;;;;;;;;;;;5028270;28;20307;-72
2022/03/11 11:56:48;;;;;;;;;;;;;;;;;;5038152;28;19998;-71
2022/03/11 11:59:15;;;;;;;;;;;;;;;;;;5020659;28;19920;-71
2022/03/11 12:01:42;;;;;;;;;;;;;;;;;;5038892;28;19921;-72
2022/03/11 12:04:08;;;;;;;;;;;;;;;;;;5034834;28;19913;-71
2022/03/11 12:06:34;;;;;;;;;;;;;;;;;;5027782;28;20087;-71
2022/03/11 12:09:00;;;;;;;;;;;;;;;;;;5026347;28;19924;-71
2022/03/11 12:11:26;;;;;;;;;;;;;;;;;;5021980;28;20413;-71
2022/03/11 12:13:52;;;;;;;;;;;;;;;;;;5032148;28;20262;-71
2022/03/11 12:16:20;;;;;;;;;;;;;;;;;;5026069;28;19916;-72
2022/03/11 12:18:47;;;;;;;;;;;;;;;;;;5026052;28;20008;-71
2022/03/11 12:21:14;;;;;;;;;;;;;;;;;;5028156;28;19943;-71
2022/03/11 12:23:40;;;;;;;;;;;;;;;;;;5033931;28;19916;-71
2022/03/11 12:26:06;;;;;;;;;;;;;;;;;;5032530;28;19921;-71
2022/03/11 12:28:35;;;;;;;;;;;;;;;;;;5008023;28;20345;-71
2022/03/11 12:31:03;;;;;;;;;;;;;;;;;;5026653;28;20324;-71
2022/03/11 12:33:30;;;;;;;;;;;;;;;;;;5009582;28;20087;-72
2022/03/11 12:35:56;;;;;;;;;;;;;;;;;;5014120;28;20341;-69
2022/03/11 12:38:22;;;;;;;;;;;;;;;;;;5010091;28;20311;-69
2022/03/11 12:40:49;;;;;;;;;;;;;;;;;;5012377;28;19924;-70
2022/03/11 12:43:15;;;;;;;;;;;;;;;;;;5010021;28;20374;-70
2022/03/11 12:45:43;;;;;;;;;;;;;;;;;;5012645;28;19943;-71
2022/03/11 12:48:09;;;;;;;;;;;;;;;;;;5007927;28;19932;-71
2022/03/11 12:50:35;;;;;;;;;;;;;;;;;;5011960;28;19913;-71
2022/03/11 12:53:03;;;;;;;;;;;;;;;;;;5012610;28;19929;-71
2022/03/11 12:55:33;;;;;;;;;;;;;;;;;;5013011;28;20425;-70
2022/03/11 12:58:00;;;;;;;;;;;;;;;;;;5010965;28;19925;-73
2022/03/11 13:00:27;;;;;;;;;;;;;;;;;;5008356;28;19917;-71
2022/03/11 13:02:53;;;;;;;;;;;;;;;;;;5008819;28;19913;-71
2022/03/11 13:05:19;;;;;;;;;;;;;;;;;;5009673;28;19923;-70
2022/03/11 13:07:45;;;;;;;;;;;;;;;;;;4999680;28;20338;-70
2022/03/11 13:10:15;;;;;;;;;;;;;;;;;;5007109;28;19928;-70
2022/03/11 13:12:41;;;;;;;;;;;;;;;;;;5009195;28;19916;-71
2022/03/11 13:15:07;;;;;;;;;;;;;;;;;;5013021;28;20378;-70
2022/03/11 13:17:34;;;;;;;;;;;;;;;;;;5009028;28;19921;-71
2022/03/11 13:20:00;;;;;;;;;;;;;;;;;;5011888;28;19974;-70
2022/03/11 13:22:30;;;;;;;;;;;;;;;;;;5007975;28;20272;-71
2022/03/11 13:24:57;;;;;;;;;;;;;;;;;;5018411;28;19916;-71
2022/03/11 13:27:23;;;;;;;;;;;;;;;;;;5011307;28;19967;-74
2022/03/11 13:29:49;;;;;;;;;;;;;;;;;;5015908;28;20489;-75
2022/03/11 13:32:15;;;;;;;;;;;;;;;;;;5006056;28;20313;-72
2022/03/11 13:34:41;;;;;;;;;;;;;;;;;;5012134;28;19967;-70
2022/03/11 13:37:09;;;;;;;;;;;;;;;;;;5013462;28;20260;-71
2022/03/11 13:39:35;;;;;;;;;;;;;;;;;;5004911;28;20021;-72
2022/03/11 13:42:01;;;;;;;;;;;;;;;;;;5010300;28;20011;-72
2022/03/11 13:44:28;;;;;;;;;;;;;;;;;;5006746;28;19917;-70
2022/03/11 13:46:54;;;;;;;;;;;;;;;;;;4995962;28;19932;-69
2022/03/11 13:49:21;;;;;;;;;;;;;;;;;;5009471;28;20439;-70
2022/03/11 13:51:51;;;;;;;;;;;;;;;;;;5018718;28;20535;-71
2022/03/11 13:54:18;;;;;;;;;;;;;;;;;;5012060;28;20581;-71
2022/03/11 13:56:48;;;;;;;;;;;;;;;;;;5013379;28;19925;-70
2022/03/11 13:59:14;;;;;;;;;;;;;;;;;;4985974;28;19917;-70
2022/03/11 14:01:40;;;;;;;;;;;;;;;;;;5010337;28;19940;-72
2022/03/11 14:04:08;;;;;;;;;;;;;;;;;;5011413;28;19917;-72
2022/03/11 14:06:35;;;;;;;;;;;;;;;;;;5007407;28;20408;-74
2022/03/11 14:09:02;;;;;;;;;;;;;;;;;;5008948;28;19917;-73
2022/03/11 14:11:30;;;;;;;;;;;;;;;;;;5008253;28;20029;-64
2022/03/11 14:13:56;;;;;;;;;;;;;;;;;;5012703;28;20073;-70
2022/03/11 14:16:22;;;;;;;;;;;;;;;;;;4993933;28;19920;-70
2022/03/11 14:18:48;;;;;;;;;;;;;;;;;;5009724;28;20486;-70
2022/03/11 14:21:15;;;;;;;;;;;;;;;;;;5006663;28;19929;-69
2022/03/11 14:23:42;;;;;;;;;;;;;;;;;;5016831;28;19963;-70
2022/03/11 14:26:08;;;;;;;;;;;;;;;;;;5009875;28;20383;-70
2022/03/11 14:28:35;;;;;;;;;;;;;;;;;;5009687;28;19964;-70
2022/03/11 14:31:03;;;;;;;;;;;;;;;;;;5012215;28;19949;-71
2022/03/11 14:33:31;;;;;;;;;;;;;;;;;;4996417;28;19983;-71
2022/03/11 14:35:58;;;;;;;;;;;;;;;;;;5008556;28;19917;-71
2022/03/11 14:38:25;;;;;;;;;;;;;;;;;;5006784;28;20247;-73
2022/03/11 14:40:53;;;;;;;;;;;;;;;;;;5005988;28;20364;-73
2022/03/11 14:43:22;;;;;;;;;;;;;;;;;;5010521;28;20274;-72
2022/03/11 14:45:48;;;;;;;;;;;;;;;;;;5011755;28;19925;-63
2022/03/11 14:48:15;;;;;;;;;;;;;;;;;;5009426;28;19956;-63
2022/03/11 14:50:41;;;;;;;;;;;;;;;;;;5012916;28;19971;-63
2022/03/11 14:53:09;;;;;;;;;;;;;;;;;;5017437;28;19917;-63
2022/03/11 14:55:35;;;;;;;;;;;;;;;;;;5008716;28;20320;-71
2022/03/11 14:58:01;;;;;;;;;;;;;;;;;;5012266;28;19917;-71
2022/03/11 15:00:27;;;;;;;;;;;;;;;;;;5010491;28;19917;-70
2022/03/11 15:02:53;;;;;;;;;;;;;;;;;;4993424;28;19917;-70
2022/03/11 15:05:19;;;;;;;;;;;;;;;;;;5013981;28;19917;-71
2022/03/11 15:07:45;;;;;;;;;;;;;;;;;;4991441;28;19928;-70
2022/03/11 15:10:13;;;;;;;;;;;;;;;;;;5012069;28;19917;-70
2022/03/11 15:12:39;;;;;;;;;;;;;;;;;;5010914;28;19951;-69
2022/03/11 15:15:07;;;;;;;;;;;;;;;;;;5013792;28;19940;-70
2022/03/11 15:17:33;;;;;;;;;;;;;;;;;;5007992;28;19920;-68
2022/03/11 15:20:01;;;;;;;;;;;;;;;;;;4997382;28;19923;-69
2022/03/11 15:22:28;;;;;;;;;;;;;;;;;;5011095;28;20500;-67
2022/03/11 15:24:54;;;;;;;;;;;;;;;;;;5013125;28;19923;-68
2022/03/11 15:27:21;;;;;;;;;;;;;;;;;;5011543;28;19921;-69
2022/03/11 15:29:48;;;;;;;;;;;;;;;;;;5015660;28;19917;-69
2022/03/11 15:32:14;;;;;;;;;;;;;;;;;;5019660;28;21055;-70
2022/03/11 15:34:40;;;;;;;;;;;;;;;;;;5034221;28;20072;-68
2022/03/11 15:37:06;;;;;;;;;;;;;;;;;;5029896;28;20450;-69
2022/03/11 15:39:32;;;;;;;;;;;;;;;;;;5031650;28;20478;-70
2022/03/11 15:41:58;;;;;;;;;;;;;;;;;;5035546;28;19916;-71
2022/03/11 15:44:26;;;;;;;;;;;;;;;;;;5031062;28;20036;-64
2022/03/11 15:46:53;;;;;;;;;;;;;;;;;;5001926;28;19929;-64
2022/03/11 15:49:20;;;;;;;;;;;;;;;;;;5033711;28;19971;-63
2022/03/11 15:51:48;;;;;;;;;;;;;;;;;;5030526;28;19994;-70
2022/03/11 15:54:15;;;;;;;;;;;;;;;;;;5027790;28;19921;-69
2022/03/11 15:56:43;;;;;;;;;;;;;;;;;;5034717;28;20031;-67
2022/03/11 15:59:11;;;;;;;;;;;;;;;;;;5028156;28;19963;-73
2022/03/11 16:01:37;;;;;;;;;;;;;;;;;;5033521;28;19943;-74
2022/03/11 16:04:04;;;;;;;;;;;;;;;;;;5033479;28;20291;-74
2022/03/11 16:06:30;;;;;;;;;;;;;;;;;;5032710;28;19921;-72
2022/03/11 16:08:56;;;;;;;;;;;;;;;;;;5035521;28;19920;-73
2022/03/11 16:11:22;;;;;;;;;;;;;;;;;;5032575;28;19917;-73
2022/03/11 16:13:49;;;;;;;;;;;;;;;;;;5033624;28;20347;-74
2022/03/11 16:16:19;;;;;;;;;;;;;;;;;;5030879;28;19921;-74
2022/03/11 16:18:45;;;;;;;;;;;;;;;;;;5032995;28;19921;-73
2022/03/11 16:21:11;;;;;;;;;;;;;;;;;;5030001;28;20533;-74
2022/03/11 16:23:37;;;;;;;;;;;;;;;;;;5037176;28;19917;-74
2022/03/11 16:26:04;;;;;;;;;;;;;;;;;;5031490;28;19927;-74
2022/03/11 16:28:30;;;;;;;;;;;;;;;;;;5014430;28;19920;-73
2022/03/11 16:30:56;;;;;;;;;;;;;;;;;;5034281;28;19940;-74
2022/03/11 16:33:23;;;;;;;;;;;;;;;;;;5033378;28;20355;-74
2022/03/11 16:35:50;;;;;;;;;;;;;;;;;;5026495;28;19917;-73
2022/03/11 16:38:16;;;;;;;;;;;;;;;;;;5026821;28;20263;-74
2022/03/11 16:40:42;;;;;;;;;;;;;;;;;;5030010;28;20263;-73